Vinita Park, Missouri
Current Conditions -  °F | °C
As of 11:51 AM on Thursday 29 Jan 2015 (Local Time) from KSTL Reporting Station
Overcast Overcast  
Wind Chill: 35°   Ceiling: 2700
Heat Index: 42°   Visibility: 10mi
Dew Point: 30°   Wind: 14mph
Humidity: 62%   Direction: 300°WNW
Pressure: 30.15"   Gusts: 25mph
Location:  38.702°N, 90.3628°W
Report Text: KSTL 291751Z 30012G22KT 10SM OVC027 06/M01 A3015 RMK AO2 SLP214 T00561011 10078 20044 51029
Loading
Personal Weather Stations






























Interactive Weather Map New forecast layout! Learn more

10-Day Weather Forecast

Advertisements
Track Severe Weather on mobile